createdAt,value
2023-05-05T00:00:53.740Z,2.25
2023-05-05T00:06:01.074Z,3.27
2023-05-05T00:11:08.201Z,1.91
2023-05-05T00:16:15.484Z,2.23
2023-05-05T00:21:22.643Z,2.28
2023-05-05T00:26:30.041Z,1.99
2023-05-05T00:31:37.402Z,1.52
2023-05-05T00:36:44.650Z,2.26
2023-05-05T00:41:51.933Z,1.54
2023-05-05T00:46:59.369Z,1.54
2023-05-05T00:52:06.709Z,1.99
2023-05-05T00:57:14.057Z,3.01
2023-05-05T01:02:21.234Z,1.88
2023-05-05T01:07:28.510Z,1.92
2023-05-05T01:12:35.773Z,1.81
2023-05-05T01:17:43.250Z,2.24
2023-05-05T01:22:50.406Z,1.46
2023-05-05T01:27:57.729Z,2.10
2023-05-05T01:33:04.886Z,2.24
2023-05-05T01:38:12.275Z,2.22
2023-05-05T01:43:19.539Z,2.40
2023-05-05T01:48:26.881Z,2.23
2023-05-05T01:53:34.146Z,2.27
2023-05-05T01:58:41.514Z,2.11
2023-05-05T02:03:48.651Z,2.48
2023-05-05T02:08:56.002Z,2.22
2023-05-05T02:14:03.281Z,2.62
2023-05-05T02:19:10.504Z,3.34
2023-05-05T02:24:17.811Z,2.00
2023-05-05T02:29:25.094Z,2.15
2023-05-05T02:34:32.285Z,2.87
2023-05-05T02:39:39.768Z,3.04
2023-05-05T02:44:46.927Z,1.59
2023-05-05T02:49:54.256Z,2.84
2023-05-05T02:55:01.501Z,2.58
2023-05-05T03:00:09.329Z,2.82
2023-05-05T03:05:16.346Z,2.67
2023-05-05T03:10:23.683Z,2.03
2023-05-05T03:15:30.846Z,3.76
2023-05-05T03:20:38.211Z,4.11
2023-05-05T03:25:45.344Z,1.88
2023-05-05T03:30:53.266Z,2.42
2023-05-05T03:36:00.514Z,3.65
2023-05-05T03:41:07.804Z,2.41
2023-05-05T03:46:15.143Z,1.78
2023-05-05T03:51:22.353Z,2.45
2023-05-05T03:56:29.506Z,2.36
2023-05-05T04:01:36.859Z,2.70
2023-05-05T04:06:44.047Z,1.87
2023-05-05T04:11:51.338Z,5.30
2023-05-05T04:16:58.502Z,1.55
2023-05-05T04:22:05.840Z,2.76
2023-05-05T04:27:13.068Z,8.25
2023-05-05T04:32:20.555Z,3.86
2023-05-05T04:37:27.781Z,2.82
2023-05-05T04:42:35.234Z,2.74
2023-05-05T04:47:42.516Z,5.15
2023-05-05T04:52:51.297Z,2.65
2023-05-05T04:57:56.483Z,1.91
2023-05-05T05:03:04.176Z,3.34
2023-05-05T05:08:11.269Z,1.82
2023-05-05T05:13:18.702Z,2.81
2023-05-05T05:18:25.796Z,1.90
2023-05-05T05:23:33.190Z,2.11
2023-05-05T05:28:40.405Z,1.79
2023-05-05T05:33:47.875Z,4.67
2023-05-05T05:38:55.178Z,2.22
2023-05-05T05:44:02.655Z,2.22
2023-05-05T05:49:09.927Z,1.58
2023-05-05T05:54:17.357Z,2.27
2023-05-05T05:59:24.673Z,1.87
2023-05-05T06:04:32.155Z,1.81
2023-05-05T06:09:39.281Z,2.96
2023-05-05T06:14:46.683Z,1.76
2023-05-05T06:19:54.511Z,2.39
2023-05-05T06:25:00.735Z,2.14
2023-05-05T06:30:08.095Z,4.72
2023-05-05T06:35:15.345Z,1.55
2023-05-05T06:40:22.730Z,2.80
2023-05-05T06:45:30.337Z,2.56
2023-05-05T06:50:37.762Z,2.52
2023-05-05T06:55:45.377Z,2.17
2023-05-05T07:00:52.599Z,2.82
2023-05-05T07:05:59.953Z,2.54
2023-05-05T07:11:07.255Z,1.75
2023-05-05T07:16:16.962Z,1.38
2023-05-05T07:21:24.264Z,1.67
2023-05-05T07:26:31.800Z,2.65
2023-05-05T07:31:39.212Z,2.79
2023-05-05T07:36:50.106Z,1.64
2023-05-05T07:41:47.358Z,2.54
2023-05-05T07:46:55.182Z,1.82
2023-05-05T07:52:02.427Z,3.10
2023-05-05T07:57:09.622Z,2.67
2023-05-05T08:02:17.916Z,3.75
2023-05-05T08:07:25.208Z,2.61
2023-05-05T08:12:35.313Z,2.77
2023-05-05T08:17:32.866Z,2.66
2023-05-05T08:22:40.167Z,1.65
2023-05-05T08:27:47.578Z,2.85
2023-05-05T08:32:57.121Z,2.11
2023-05-05T08:38:04.456Z,2.15
2023-05-05T08:43:11.927Z,2.69
2023-05-05T08:48:21.470Z,1.77
2023-05-05T08:53:28.724Z,1.68
2023-05-05T08:58:36.474Z,1.22
2023-05-05T09:03:43.790Z,1.53
2023-05-05T09:08:51.081Z,3.59
2023-05-05T09:13:58.515Z,1.52
2023-05-05T09:19:05.893Z,3.49
2023-05-05T09:24:13.096Z,1.75
2023-05-05T09:29:20.423Z,2.88
2023-05-05T09:34:27.688Z,1.25
2023-05-05T09:39:35.126Z,1.13
2023-05-05T09:44:42.302Z,2.28
2023-05-05T09:49:49.650Z,2.08
2023-05-05T09:54:56.828Z,3.10
2023-05-05T10:00:04.709Z,2.72
2023-05-05T10:05:16.528Z,2.27
2023-05-05T10:10:13.732Z,3.18
2023-05-05T10:15:20.959Z,2.16
2023-05-05T10:20:28.258Z,2.76
2023-05-05T10:25:35.497Z,4.25
2023-05-05T10:30:42.893Z,1.57
2023-05-05T10:35:50.107Z,2.42
2023-05-05T10:40:57.719Z,1.49
2023-05-05T10:46:04.939Z,2.21
2023-05-05T10:51:12.182Z,1.77
2023-05-05T10:56:19.383Z,2.37
2023-05-05T11:01:27.107Z,2.39
2023-05-05T11:06:34.279Z,1.36
2023-05-05T11:11:41.721Z,1.50
2023-05-05T11:16:49.087Z,2.25
2023-05-05T11:21:56.478Z,1.78
2023-05-05T11:27:03.727Z,2.09
2023-05-05T11:32:11.240Z,1.81
2023-05-05T11:37:18.413Z,1.57
2023-05-05T11:42:25.931Z,2.62
2023-05-05T11:47:32.931Z,2.16
2023-05-05T11:52:40.177Z,1.47
2023-05-05T11:57:47.426Z,2.01
2023-05-05T12:02:55.101Z,1.47
2023-05-05T12:08:05.634Z,2.14
2023-05-05T12:13:03.004Z,3.53
2023-05-05T12:18:10.220Z,2.13
2023-05-05T12:23:17.529Z,2.34
2023-05-05T12:28:24.809Z,2.10
2023-05-05T12:33:32.243Z,2.28
2023-05-05T12:38:39.476Z,3.09
2023-05-05T12:43:46.843Z,1.59
2023-05-05T12:48:54.092Z,2.06
2023-05-05T12:54:01.497Z,2.94
2023-05-05T12:59:09.087Z,1.88
2023-05-05T13:04:16.500Z,2.18
2023-05-05T13:09:23.703Z,1.95
2023-05-05T13:14:31.064Z,1.69
2023-05-05T13:19:38.370Z,2.65
2023-05-05T13:24:52.488Z,1.90
2023-05-05T13:29:53.852Z,4.06
2023-05-05T13:40:07.026Z,1.48
2023-05-05T13:45:14.334Z,1.59
2023-05-05T13:50:21.513Z,2.69
2023-05-05T13:55:29.188Z,2.24
2023-05-05T14:00:32.282Z,3.08
2023-05-05T14:05:39.964Z,2.40
2023-05-05T14:10:44.778Z,4.58
2023-05-05T14:15:50.052Z,3.71
2023-05-05T14:20:58.577Z,2.69
2023-05-05T14:26:06.037Z,2.08
2023-05-05T14:31:13.993Z,5.84
2023-05-05T14:36:21.335Z,3.71
2023-05-05T14:41:29.633Z,1.80
2023-05-05T14:46:37.666Z,1.94
2023-05-05T14:51:46.020Z,2.01
2023-05-05T14:56:53.308Z,1.94
2023-05-05T15:02:00.868Z,3.40
2023-05-05T15:07:08.123Z,12.19
2023-05-05T15:12:16.786Z,1.87
2023-05-05T15:17:23.361Z,2.38
2023-05-05T15:22:30.608Z,2.86
2023-05-05T15:27:38.271Z,1.85
2023-05-05T15:32:46.893Z,1.72
2023-05-05T15:37:54.204Z,2.73
2023-05-05T15:43:02.663Z,2.37
2023-05-05T15:48:10.294Z,1.21
2023-05-05T15:53:17.534Z,2.23
2023-05-05T15:58:25.163Z,3.58
2023-05-05T16:03:32.565Z,2.58
2023-05-05T16:08:39.914Z,1.67
2023-05-05T16:13:47.333Z,1.46
2023-05-05T16:18:54.936Z,2.51
2023-05-05T16:24:02.233Z,1.48
2023-05-05T16:29:09.720Z,1.80
2023-05-05T16:34:16.937Z,2.98
2023-05-05T16:39:24.365Z,1.50
2023-05-05T16:44:31.594Z,3.96
2023-05-05T16:49:39.183Z,1.64
2023-05-05T16:54:46.447Z,1.58
2023-05-05T16:59:56.572Z,2.31
2023-05-05T17:04:53.819Z,2.43
2023-05-05T17:10:01.230Z,2.60
2023-05-05T17:15:08.709Z,1.26
2023-05-05T17:20:15.839Z,2.64
2023-05-05T17:25:23.200Z,1.71
2023-05-05T17:30:30.628Z,2.25
2023-05-05T17:35:37.947Z,1.43
2023-05-05T17:40:45.246Z,2.24
2023-05-05T17:45:52.554Z,4.19
2023-05-05T17:50:59.894Z,1.95
2023-05-05T17:56:08.864Z,2.90
2023-05-05T18:01:17.105Z,2.45
2023-05-05T18:06:14.326Z,1.67
2023-05-05T18:11:21.704Z,3.28
2023-05-05T18:16:29.251Z,3.06
2023-05-05T18:21:36.786Z,2.24
2023-05-05T18:26:44.065Z,1.43
2023-05-05T18:36:55.710Z,1.97
2023-05-05T18:42:03.136Z,1.67
2023-05-05T18:47:10.442Z,3.00
2023-05-05T18:52:17.704Z,1.62
2023-05-05T18:57:24.888Z,2.44
2023-05-05T19:02:32.355Z,3.19
2023-05-05T19:07:39.633Z,2.25
2023-05-05T19:12:46.990Z,1.85
2023-05-05T19:17:54.180Z,1.58
2023-05-05T19:23:01.564Z,2.81
2023-05-05T19:33:13.237Z,2.73
2023-05-05T19:38:20.583Z,1.60
2023-05-05T19:43:28.033Z,2.04
2023-05-05T19:48:35.300Z,3.49
2023-05-05T19:53:42.666Z,6.11
2023-05-05T19:58:50.711Z,2.41
2023-05-05T20:03:58.206Z,4.23
2023-05-05T20:09:05.402Z,2.30
2023-05-05T20:14:12.816Z,2.08
2023-05-05T20:19:20.081Z,3.57
2023-05-05T20:24:27.457Z,2.48
2023-05-05T20:29:34.718Z,1.96
2023-05-05T20:34:42.160Z,6.71
2023-05-05T20:39:49.418Z,2.04
2023-05-05T20:44:56.690Z,5.72
2023-05-05T20:50:03.807Z,3.68
2023-05-05T20:55:11.244Z,4.96
2023-05-05T21:00:18.515Z,3.83
2023-05-05T21:05:25.998Z,3.79
2023-05-05T21:10:34.520Z,2.71
2023-05-05T21:15:40.908Z,5.18
2023-05-05T21:20:48.092Z,6.56
2023-05-05T21:25:55.627Z,6.86
2023-05-05T21:31:20.600Z,6.95
2023-05-05T21:36:03.993Z,6.57
2023-05-05T21:41:11.210Z,7.90
2023-05-05T21:46:18.674Z,9.15
2023-05-05T21:51:25.878Z,4.30
2023-05-05T21:56:33.185Z,6.49
2023-05-05T22:01:40.508Z,6.12
2023-05-05T22:06:47.837Z,5.16
2023-05-05T22:11:55.138Z,4.30
2023-05-05T22:17:02.491Z,3.48
2023-05-05T22:22:13.096Z,5.88
2023-05-05T22:27:19.807Z,5.88
2023-05-05T22:32:27.022Z,4.03
2023-05-05T22:37:34.408Z,4.56
2023-05-05T22:42:41.608Z,6.25
2023-05-05T22:47:49.004Z,4.25
2023-05-05T22:52:56.212Z,13.87
2023-05-05T22:58:03.636Z,21.83
2023-05-05T23:03:10.913Z,20.86
2023-05-05T23:08:18.197Z,14.72
2023-05-05T23:13:25.412Z,12.66
2023-05-05T23:18:32.712Z,10.54
2023-05-05T23:23:39.925Z,7.59
2023-05-05T23:28:47.211Z,5.20
2023-05-05T23:33:54.504Z,4.27
2023-05-05T23:39:01.794Z,2.97
2023-05-05T23:44:09.045Z,2.55
2023-05-05T23:49:16.413Z,2.75
2023-05-05T23:54:23.598Z,8.72
2023-05-05T23:59:30.937Z,19.10
